createdAt,value
2023-10-04T00:00:16.210Z,1.30
2023-10-04T00:01:12.409Z,1.60
2023-10-04T00:02:05.168Z,1.60
2023-10-04T00:02:58.212Z,1.30
2023-10-04T00:03:53.634Z,1.57
2023-10-04T00:04:47.181Z,1.50
2023-10-04T00:05:40.007Z,1.60
2023-10-04T00:06:35.471Z,1.77
2023-10-04T00:07:30.754Z,1.40
2023-10-04T00:08:26.556Z,1.40
2023-10-04T00:09:19.954Z,1.40
2023-10-04T00:10:13.005Z,1.30
2023-10-04T00:11:09.915Z,1.53
2023-10-04T00:12:03.417Z,1.70
2023-10-04T00:12:58.987Z,1.30
2023-10-04T00:13:52.839Z,1.47
2023-10-04T00:14:45.532Z,1.33
2023-10-04T00:15:41.362Z,1.50
2023-10-04T00:16:34.426Z,1.40
2023-10-04T00:17:27.203Z,1.40
2023-10-04T00:18:23.019Z,1.30
2023-10-04T00:19:15.975Z,1.30
2023-10-04T00:20:11.598Z,1.70
2023-10-04T00:21:07.965Z,1.73
2023-10-04T00:22:00.699Z,1.70
2023-10-04T00:22:56.026Z,1.43
2023-10-04T00:23:51.318Z,1.30
2023-10-04T00:24:44.018Z,1.60
2023-10-04T00:25:40.228Z,1.20
2023-10-04T00:26:32.972Z,1.13
2023-10-04T00:27:28.368Z,1.13
2023-10-04T00:28:21.131Z,1.57
2023-10-04T00:29:18.626Z,1.33
2023-10-04T00:30:13.269Z,1.40
2023-10-04T00:31:07.098Z,1.33
2023-10-04T00:32:02.537Z,1.20
2023-10-04T00:32:56.190Z,1.60
2023-10-04T00:33:52.356Z,1.30
2023-10-04T00:34:45.243Z,1.40
2023-10-04T00:35:42.440Z,1.67
2023-10-04T00:36:35.662Z,1.53
2023-10-04T00:37:28.490Z,1.33
2023-10-04T00:38:28.329Z,1.27
2023-10-04T00:39:21.120Z,1.17
2023-10-04T00:40:17.007Z,1.40
2023-10-04T00:41:13.010Z,1.43
2023-10-04T00:42:05.762Z,1.33
2023-10-04T00:43:02.718Z,1.53
2023-10-04T00:44:02.407Z,1.43
2023-10-04T00:44:55.563Z,1.20
2023-10-04T00:45:49.416Z,1.67
2023-10-04T00:46:47.136Z,1.40
2023-10-04T00:47:40.843Z,1.20
2023-10-04T00:48:36.809Z,1.37
2023-10-04T00:49:30.578Z,1.10
2023-10-04T00:50:27.631Z,1.10
2023-10-04T00:51:24.612Z,1.60
2023-10-04T00:52:17.530Z,1.20
2023-10-04T00:53:12.147Z,1.40
2023-10-04T00:54:11.324Z,1.33
2023-10-04T00:55:05.491Z,1.40
2023-10-04T00:56:00.886Z,1.20
2023-10-04T00:56:53.836Z,1.10
2023-10-04T00:57:52.948Z,1.40
2023-10-04T00:58:47.122Z,1.33
2023-10-04T00:59:44.269Z,1.27
2023-10-04T01:00:38.125Z,1.30
2023-10-04T01:01:33.955Z,1.20
2023-10-04T01:02:30.039Z,1.20
2023-10-04T01:03:26.258Z,1.20
2023-10-04T01:04:22.279Z,1.30
2023-10-04T01:05:16.610Z,1.60
2023-10-04T01:06:13.207Z,1.50
2023-10-04T01:07:06.198Z,1.30
2023-10-04T01:07:59.386Z,1.40
2023-10-04T01:08:55.041Z,1.37
2023-10-04T01:09:51.062Z,1.30
2023-10-04T01:10:47.424Z,1.00
2023-10-04T01:11:46.731Z,1.30
2023-10-04T01:12:41.857Z,1.33
2023-10-04T01:13:39.817Z,1.43
2023-10-04T01:14:39.068Z,1.30
2023-10-04T01:15:33.284Z,1.70
2023-10-04T01:16:28.918Z,1.50
2023-10-04T01:17:21.837Z,1.60
2023-10-04T01:18:18.188Z,1.50
2023-10-04T01:19:15.534Z,1.37
2023-10-04T01:20:14.400Z,1.40
2023-10-04T01:21:10.885Z,1.20
2023-10-04T01:22:07.432Z,1.90
2023-10-04T01:23:03.651Z,1.40
2023-10-04T01:23:59.433Z,1.63
2023-10-04T01:24:55.097Z,1.37
2023-10-04T01:25:50.992Z,1.50
2023-10-04T01:26:44.183Z,1.20
2023-10-04T01:27:40.090Z,1.43
2023-10-04T01:28:35.499Z,1.63
2023-10-04T01:29:28.234Z,1.13
2023-10-04T01:30:21.000Z,1.20
2023-10-04T01:31:16.365Z,1.40
2023-10-04T01:32:10.165Z,1.70
2023-10-04T01:33:04.833Z,1.40
2023-10-04T01:34:00.311Z,1.47
2023-10-04T01:34:53.104Z,1.27
2023-10-04T01:35:46.960Z,1.30
2023-10-04T01:36:43.484Z,1.37
2023-10-04T01:37:40.886Z,1.20
2023-10-04T01:38:34.464Z,1.00
2023-10-04T01:39:31.896Z,1.30
2023-10-04T01:40:27.577Z,1.53
2023-10-04T01:41:22.961Z,1.30
2023-10-04T01:42:15.878Z,1.40
2023-10-04T01:43:17.216Z,1.27
2023-10-04T01:44:11.701Z,1.37
2023-10-04T01:45:05.208Z,1.40
2023-10-04T01:46:02.126Z,1.53
2023-10-04T01:46:57.599Z,1.53
2023-10-04T01:47:50.860Z,1.23
2023-10-04T01:48:46.325Z,1.47
2023-10-04T01:49:39.078Z,1.20
2023-10-04T01:50:34.464Z,1.47
2023-10-04T01:51:28.895Z,1.77
2023-10-04T01:52:24.821Z,1.40
2023-10-04T01:53:21.025Z,1.23
2023-10-04T01:54:17.059Z,1.53
2023-10-04T01:55:12.179Z,1.50
2023-10-04T01:56:06.138Z,1.30
2023-10-04T01:57:06.491Z,1.27
2023-10-04T01:57:59.325Z,1.60
2023-10-04T01:58:55.238Z,1.43
2023-10-04T01:59:48.125Z,1.90
2023-10-04T02:00:41.043Z,1.60
2023-10-04T02:01:36.491Z,1.93
2023-10-04T02:02:29.703Z,1.90
2023-10-04T02:03:22.764Z,1.97
2023-10-04T02:04:19.006Z,2.00
2023-10-04T02:05:16.953Z,1.73
2023-10-04T02:06:10.303Z,1.83
2023-10-04T02:07:05.729Z,1.90
2023-10-04T02:07:59.249Z,1.70
2023-10-04T02:08:57.192Z,1.40
2023-10-04T02:09:50.025Z,2.07
2023-10-04T02:10:46.243Z,1.50
2023-10-04T02:11:39.071Z,1.40
2023-10-04T02:12:34.737Z,1.23
2023-10-04T02:13:30.594Z,1.47
2023-10-04T02:14:23.310Z,1.30
2023-10-04T02:15:16.522Z,1.80
2023-10-04T02:16:21.477Z,1.70
2023-10-04T02:17:18.609Z,1.57
2023-10-04T02:18:13.983Z,2.07
2023-10-04T02:19:06.865Z,1.70
2023-10-04T02:20:02.781Z,1.50
2023-10-04T02:20:55.859Z,2.00
2023-10-04T02:21:51.434Z,1.60
2023-10-04T02:22:44.156Z,2.10
2023-10-04T02:23:40.310Z,1.80
2023-10-04T02:24:35.626Z,1.63
2023-10-04T02:25:31.011Z,1.70
2023-10-04T02:26:24.099Z,1.83
2023-10-04T02:27:19.188Z,1.60
2023-10-04T02:28:20.535Z,1.80
2023-10-04T02:29:13.661Z,1.87
2023-10-04T02:30:23.402Z,1.33
2023-10-04T02:31:16.398Z,1.53
2023-10-04T02:32:12.346Z,1.40
2023-10-04T02:33:15.553Z,1.53
2023-10-04T02:34:13.634Z,1.53
2023-10-04T02:35:07.752Z,1.50
2023-10-04T02:36:02.116Z,1.53
2023-10-04T02:36:57.611Z,2.23
2023-10-04T02:37:55.660Z,1.80
2023-10-04T02:38:51.088Z,2.17
2023-10-04T02:39:46.412Z,2.07
2023-10-04T02:40:40.389Z,2.10
2023-10-04T02:41:35.833Z,2.30
2023-10-04T02:42:30.366Z,2.10
2023-10-04T02:43:28.243Z,1.60
2023-10-04T02:44:23.706Z,1.67
2023-10-04T02:45:22.456Z,2.13
2023-10-04T02:46:15.272Z,1.70
2023-10-04T02:47:10.998Z,2.17
2023-10-04T02:48:05.389Z,1.70
2023-10-04T02:49:02.296Z,2.10
2023-10-04T02:49:55.586Z,1.50
2023-10-04T02:50:48.585Z,1.60
2023-10-04T02:51:48.619Z,1.87
2023-10-04T02:52:43.287Z,1.37
2023-10-04T02:53:39.047Z,1.40
2023-10-04T02:54:34.967Z,1.60
2023-10-04T02:55:33.238Z,1.37
2023-10-04T02:56:29.585Z,1.60
2023-10-04T02:57:22.405Z,1.50
2023-10-04T02:58:18.319Z,1.70
2023-10-04T02:59:12.417Z,1.60
2023-10-04T03:00:12.699Z,1.60
2023-10-04T03:01:10.432Z,1.80
2023-10-04T03:02:04.798Z,1.47
2023-10-04T03:02:57.764Z,1.43
2023-10-04T03:03:56.864Z,1.20
2023-10-04T03:04:53.183Z,1.30
2023-10-04T03:05:47.415Z,1.30
2023-10-04T03:06:42.977Z,1.80
2023-10-04T03:07:38.612Z,1.53
2023-10-04T03:08:33.888Z,1.17
2023-10-04T03:09:30.489Z,1.60
2023-10-04T03:10:26.340Z,1.40
2023-10-04T03:11:29.938Z,1.47
2023-10-04T03:12:25.711Z,1.10
2023-10-04T03:13:27.342Z,1.47
2023-10-04T03:14:27.366Z,1.57
2023-10-04T03:15:23.530Z,1.40
2023-10-04T03:16:21.180Z,1.60
2023-10-04T03:17:17.338Z,1.70
2023-10-04T03:18:22.537Z,1.60
2023-10-04T03:19:18.972Z,1.47
2023-10-04T03:20:21.878Z,1.17
2023-10-04T03:21:22.021Z,1.70
2023-10-04T03:22:24.084Z,1.60
2023-10-04T03:23:20.239Z,1.20
2023-10-04T03:24:16.028Z,1.70
2023-10-04T03:25:11.433Z,1.80
2023-10-04T03:26:05.710Z,1.27
2023-10-04T03:27:06.505Z,1.23
2023-10-04T03:28:00.155Z,1.50
2023-10-04T03:28:55.502Z,1.97
2023-10-04T03:29:54.050Z,1.70
2023-10-04T03:30:46.863Z,1.60
2023-10-04T03:31:44.003Z,1.50
2023-10-04T03:32:36.976Z,1.60
2023-10-04T03:33:29.773Z,1.27
2023-10-04T03:34:26.570Z,1.30
2023-10-04T03:35:22.263Z,1.23
2023-10-04T03:36:19.128Z,1.70
2023-10-04T03:37:24.436Z,1.30
2023-10-04T03:38:20.634Z,1.63
2023-10-04T03:39:17.654Z,1.43
2023-10-04T03:40:16.250Z,1.70
2023-10-04T03:41:09.335Z,1.40
2023-10-04T03:42:07.320Z,1.97
2023-10-04T03:43:01.571Z,1.60
2023-10-04T03:43:57.298Z,1.60
2023-10-04T03:44:51.078Z,1.50
2023-10-04T03:45:46.526Z,1.50
2023-10-04T03:46:45.829Z,1.60
2023-10-04T03:47:40.475Z,1.90
2023-10-04T03:48:38.958Z,1.50
2023-10-04T03:49:32.396Z,1.50
2023-10-04T03:50:29.300Z,1.27
2023-10-04T03:51:23.124Z,1.50
2023-10-04T03:52:21.100Z,1.50
2023-10-04T03:53:14.054Z,1.60
2023-10-04T03:54:08.990Z,1.50
2023-10-04T03:55:08.949Z,1.50
2023-10-04T03:56:01.824Z,1.30
2023-10-04T03:56:58.326Z,1.40
2023-10-04T03:57:53.682Z,1.70
2023-10-04T03:58:50.419Z,1.50
2023-10-04T03:59:45.477Z,1.57
2023-10-04T04:00:40.978Z,1.57
2023-10-04T04:01:33.778Z,1.57
2023-10-04T04:02:29.142Z,1.77
2023-10-04T04:03:21.984Z,1.50
2023-10-04T04:04:19.373Z,1.53
2023-10-04T04:05:15.645Z,1.47
2023-10-04T04:06:13.334Z,1.60
2023-10-04T04:07:06.222Z,1.50
2023-10-04T04:08:00.311Z,1.87
2023-10-04T04:08:57.539Z,1.70
2023-10-04T04:09:50.318Z,2.00
2023-10-04T04:10:47.507Z,3.20
2023-10-04T04:11:40.226Z,2.70
2023-10-04T04:12:33.146Z,2.50
2023-10-04T04:13:31.139Z,3.47
2023-10-04T04:14:23.885Z,3.60
2023-10-04T04:15:17.103Z,3.90
2023-10-04T04:16:13.817Z,3.33
2023-10-04T04:17:07.778Z,2.60
2023-10-04T04:18:00.551Z,2.67
2023-10-04T04:18:56.738Z,3.07
2023-10-04T04:19:50.769Z,3.13
2023-10-04T04:20:43.572Z,2.07
2023-10-04T04:21:40.547Z,2.30
2023-10-04T04:22:33.881Z,2.10
2023-10-04T04:23:29.330Z,1.77
2023-10-04T04:24:24.864Z,1.50
2023-10-04T04:25:21.242Z,1.50
2023-10-04T04:26:17.061Z,2.10
2023-10-04T04:27:14.277Z,1.53
2023-10-04T04:28:09.133Z,1.57
2023-10-04T04:29:11.136Z,1.90
2023-10-04T04:30:07.236Z,1.50
2023-10-04T04:31:02.864Z,1.50
2023-10-04T04:31:58.093Z,1.27
2023-10-04T04:32:57.852Z,1.60
2023-10-04T04:33:51.423Z,1.97
2023-10-04T04:34:52.245Z,2.40
2023-10-04T04:35:49.422Z,2.23
2023-10-04T04:36:48.036Z,2.43
2023-10-04T04:37:41.979Z,3.23
2023-10-04T04:38:39.643Z,1.80
2023-10-04T04:39:35.345Z,2.80
2023-10-04T04:40:31.920Z,1.90
2023-10-04T04:41:30.450Z,1.97
2023-10-04T04:42:31.942Z,2.00
2023-10-04T04:43:37.609Z,1.60
2023-10-04T04:44:42.051Z,1.33
2023-10-04T04:45:36.652Z,1.00
2023-10-04T04:46:33.987Z,1.30
2023-10-04T04:47:27.784Z,1.23
2023-10-04T04:48:25.011Z,1.40
2023-10-04T04:49:23.731Z,1.40
2023-10-04T04:50:18.157Z,1.57
2023-10-04T04:51:17.044Z,1.60
2023-10-04T04:52:13.183Z,1.43
2023-10-04T04:53:09.901Z,1.80
2023-10-04T04:54:05.415Z,1.30
2023-10-04T04:54:59.913Z,1.63
2023-10-04T04:55:53.022Z,1.53
2023-10-04T04:56:48.362Z,1.67
2023-10-04T04:57:42.360Z,1.60
2023-10-04T04:58:36.247Z,2.00
2023-10-04T04:59:32.870Z,1.50
2023-10-04T05:00:34.855Z,1.90
2023-10-04T05:01:35.389Z,1.30
2023-10-04T05:02:33.557Z,1.40
2023-10-04T05:03:27.939Z,1.20
2023-10-04T05:04:24.565Z,1.70
2023-10-04T05:05:17.675Z,1.90
2023-10-04T05:06:15.756Z,1.80
2023-10-04T05:07:11.203Z,1.80
2023-10-04T05:08:07.638Z,2.07
2023-10-04T05:09:02.430Z,1.70
2023-10-04T05:09:58.318Z,1.80
2023-10-04T05:10:51.604Z,1.40
2023-10-04T05:11:44.529Z,1.63
2023-10-04T05:12:39.904Z,1.63
2023-10-04T05:13:32.630Z,1.33
2023-10-04T05:14:27.988Z,1.27
2023-10-04T05:15:24.278Z,1.30
2023-10-04T05:16:22.400Z,1.77
2023-10-04T05:17:15.214Z,1.90
2023-10-04T05:18:16.955Z,1.90
2023-10-04T05:19:13.232Z,1.70
2023-10-04T05:20:07.991Z,1.70
2023-10-04T05:21:05.693Z,1.87
2023-10-04T05:21:58.494Z,1.73
2023-10-04T05:22:51.506Z,1.20
2023-10-04T05:23:46.980Z,1.70
2023-10-04T05:24:39.914Z,1.20
2023-10-04T05:25:35.471Z,1.30
2023-10-04T05:26:28.817Z,1.27
2023-10-04T05:27:24.250Z,1.60
2023-10-04T05:28:17.189Z,1.77
2023-10-04T05:29:13.904Z,1.33
2023-10-04T05:30:08.152Z,1.67
2023-10-04T05:31:00.896Z,1.83
2023-10-04T05:31:58.872Z,1.00
2023-10-04T05:32:51.678Z,1.63
2023-10-04T05:33:47.130Z,1.60
2023-10-04T05:34:40.182Z,1.50
2023-10-04T05:35:33.650Z,1.50
2023-10-04T05:36:29.013Z,1.43
2023-10-04T05:37:21.757Z,1.60
2023-10-04T05:38:15.923Z,1.53
2023-10-04T05:39:16.079Z,2.00
2023-10-04T05:40:18.753Z,1.70
2023-10-04T05:41:14.402Z,1.60
2023-10-04T05:42:07.725Z,1.67
2023-10-04T05:43:00.544Z,1.20
2023-10-04T05:43:55.831Z,1.50
2023-10-04T05:44:48.541Z,1.50
2023-10-04T05:45:43.818Z,1.83
2023-10-04T05:46:45.657Z,1.50
2023-10-04T05:47:41.289Z,1.23
2023-10-04T05:48:36.844Z,1.47
2023-10-04T05:49:29.586Z,1.40
2023-10-04T05:50:22.649Z,1.43
2023-10-04T05:51:19.050Z,1.13
2023-10-04T05:52:12.116Z,1.67
2023-10-04T05:53:08.720Z,1.47
2023-10-04T05:54:04.877Z,1.40
2023-10-04T05:54:59.153Z,1.50
2023-10-04T05:55:55.178Z,1.23
2023-10-04T05:56:47.881Z,1.40
2023-10-04T05:57:40.734Z,1.33
2023-10-04T05:58:36.420Z,1.37
2023-10-04T05:59:29.200Z,1.57
2023-10-04T06:00:26.394Z,1.73
2023-10-04T06:01:23.156Z,1.30
2023-10-04T06:02:15.891Z,1.50
2023-10-04T06:03:13.034Z,1.50
2023-10-04T06:04:12.658Z,1.40
2023-10-04T06:05:09.628Z,1.60
2023-10-04T06:06:05.000Z,1.60
2023-10-04T06:06:58.059Z,1.57
2023-10-04T06:07:51.839Z,1.53
2023-10-04T06:08:47.660Z,1.90
2023-10-04T06:09:43.767Z,1.77
2023-10-04T06:10:39.368Z,1.77
2023-10-04T06:11:32.074Z,1.87
2023-10-04T06:12:24.774Z,1.70
2023-10-04T06:13:20.161Z,2.03
2023-10-04T06:14:12.894Z,1.77
2023-10-04T06:15:06.615Z,1.83
2023-10-04T06:16:02.152Z,1.47
2023-10-04T06:16:55.248Z,1.53
2023-10-04T06:17:48.628Z,1.30
2023-10-04T06:18:48.326Z,1.40
2023-10-04T06:19:41.621Z,1.30
2023-10-04T06:20:34.672Z,1.47
2023-10-04T06:21:30.229Z,1.80
2023-10-04T06:22:23.015Z,1.83
2023-10-04T06:23:19.319Z,1.77
2023-10-04T06:24:13.254Z,1.37
2023-10-04T06:25:07.135Z,1.70
2023-10-04T06:26:02.469Z,1.90
2023-10-04T06:26:55.198Z,1.50
2023-10-04T06:27:48.542Z,1.90
2023-10-04T06:28:44.521Z,1.70
2023-10-04T06:29:37.209Z,1.90
2023-10-04T06:30:34.098Z,1.40
2023-10-04T06:31:27.412Z,1.90
2023-10-04T06:32:20.157Z,1.80
2023-10-04T06:33:16.700Z,1.43
2023-10-04T06:34:12.954Z,1.77
2023-10-04T06:35:07.614Z,2.23
2023-10-04T06:36:02.941Z,2.97
2023-10-04T06:36:55.764Z,2.53
2023-10-04T06:37:48.488Z,2.40
2023-10-04T06:38:44.374Z,3.20
2023-10-04T06:39:37.093Z,2.53
2023-10-04T06:40:32.968Z,1.73
2023-10-04T06:41:28.703Z,1.80
2023-10-04T06:42:21.478Z,1.90
2023-10-04T06:43:17.465Z,1.60
2023-10-04T06:44:10.157Z,1.80
2023-10-04T06:45:03.226Z,1.90
2023-10-04T06:45:58.599Z,2.60
2023-10-04T06:46:51.560Z,2.07
2023-10-04T06:47:45.535Z,2.40
2023-10-04T06:48:43.082Z,1.80
2023-10-04T06:49:38.594Z,1.60
2023-10-04T06:50:37.385Z,2.47
2023-10-04T06:51:30.233Z,2.70
2023-10-04T06:52:25.607Z,4.50
2023-10-04T06:53:18.482Z,4.00
2023-10-04T06:54:14.364Z,3.40
2023-10-04T06:55:09.989Z,3.00
2023-10-04T06:56:05.950Z,2.20
2023-10-04T06:57:00.606Z,2.20
2023-10-04T06:57:53.607Z,2.10
2023-10-04T06:58:49.902Z,2.03
2023-10-04T06:59:42.649Z,2.30
2023-10-04T07:00:40.164Z,2.73
2023-10-04T07:01:33.030Z,2.23
2023-10-04T07:02:25.796Z,2.33
2023-10-04T07:03:21.230Z,2.40
2023-10-04T07:04:14.099Z,2.37
2023-10-04T07:05:10.069Z,2.37
2023-10-04T07:06:06.543Z,2.10
2023-10-04T07:06:59.423Z,2.07
2023-10-04T07:07:53.190Z,1.90
2023-10-04T07:08:49.919Z,2.40
2023-10-04T07:09:42.833Z,2.60
2023-10-04T07:10:39.109Z,2.07
2023-10-04T07:11:31.930Z,1.97
2023-10-04T07:12:24.733Z,2.40
2023-10-04T07:13:20.079Z,2.33
2023-10-04T07:14:12.786Z,2.20
2023-10-04T07:15:08.157Z,2.83
2023-10-04T07:16:03.578Z,1.87
2023-10-04T07:16:56.453Z,2.50
2023-10-04T07:17:52.232Z,2.50
2023-10-04T07:18:44.934Z,2.60
2023-10-04T07:19:40.263Z,2.43
2023-10-04T07:20:36.064Z,2.40
2023-10-04T07:21:28.859Z,2.53
2023-10-04T07:22:30.730Z,2.40
2023-10-04T07:23:36.480Z,2.60
2023-10-04T07:24:38.870Z,2.70
2023-10-04T07:25:32.645Z,2.60
2023-10-04T07:26:30.021Z,2.53
2023-10-04T07:27:22.789Z,2.70
2023-10-04T07:28:18.250Z,2.40
2023-10-04T07:29:10.935Z,2.60
2023-10-04T07:30:08.818Z,2.27
2023-10-04T07:31:01.726Z,2.20
2023-10-04T07:31:54.733Z,2.30
2023-10-04T07:32:50.960Z,2.47
2023-10-04T07:33:43.712Z,3.00
2023-10-04T07:34:36.564Z,2.73
2023-10-04T07:35:32.320Z,2.70
2023-10-04T07:36:27.646Z,2.30
2023-10-04T07:37:24.013Z,2.23
2023-10-04T07:38:16.714Z,2.37
2023-10-04T07:39:17.321Z,1.90
2023-10-04T07:40:12.061Z,2.80
2023-10-04T07:41:07.415Z,2.30
2023-10-04T07:42:01.137Z,3.47
2023-10-04T07:42:57.157Z,4.40
2023-10-04T07:43:49.868Z,5.20
2023-10-04T07:44:45.209Z,3.60
2023-10-04T07:45:39.690Z,3.23
2023-10-04T07:46:35.606Z,2.80
2023-10-04T07:47:28.434Z,2.80
2023-10-04T07:48:23.881Z,2.70
2023-10-04T07:49:16.594Z,2.57
2023-10-04T07:50:11.455Z,2.23
2023-10-04T07:51:08.158Z,3.23
2023-10-04T07:52:04.899Z,3.30
2023-10-04T07:53:04.455Z,3.10
2023-10-04T07:53:57.799Z,2.23
2023-10-04T07:54:51.780Z,2.33
2023-10-04T07:55:47.197Z,2.67
2023-10-04T07:56:39.952Z,2.00
2023-10-04T07:57:37.323Z,2.07
2023-10-04T07:58:30.104Z,2.20
2023-10-04T07:59:25.461Z,2.10
2023-10-04T08:00:18.799Z,2.70
2023-10-04T08:01:16.480Z,2.73
2023-10-04T08:02:12.464Z,1.80
2023-10-04T08:03:09.740Z,2.13
2023-10-04T08:04:02.613Z,2.00
2023-10-04T08:04:58.232Z,2.00
2023-10-04T08:05:51.775Z,1.90
2023-10-04T08:06:50.839Z,1.80
2023-10-04T08:07:46.230Z,2.00
2023-10-04T08:08:42.755Z,1.93
2023-10-04T08:09:35.532Z,1.90
2023-10-04T08:10:32.554Z,1.90
2023-10-04T08:11:25.268Z,1.87
2023-10-04T08:12:21.517Z,2.23
2023-10-04T08:13:15.218Z,1.80
2023-10-04T08:14:08.945Z,2.10
2023-10-04T08:15:04.760Z,1.73
2023-10-04T08:15:57.569Z,1.60
2023-10-04T08:16:51.908Z,2.10
2023-10-04T08:17:49.642Z,1.97
2023-10-04T08:18:42.785Z,2.03
2023-10-04T08:19:38.243Z,2.07
2023-10-04T08:20:34.816Z,1.90
2023-10-04T08:21:28.252Z,2.00
2023-10-04T08:22:25.175Z,1.93
2023-10-04T08:23:22.942Z,1.83
2023-10-04T08:24:18.307Z,1.90
2023-10-04T08:25:11.966Z,2.10
2023-10-04T08:26:14.104Z,1.80
2023-10-04T08:27:11.089Z,1.67
2023-10-04T08:28:06.785Z,1.80
2023-10-04T08:29:02.157Z,1.90
2023-10-04T08:29:56.121Z,1.63
2023-10-04T08:30:52.749Z,1.97
2023-10-04T08:31:45.990Z,1.80
2023-10-04T08:32:42.827Z,1.90
2023-10-04T08:33:35.685Z,1.70
2023-10-04T08:34:32.062Z,2.20
2023-10-04T08:35:26.351Z,1.80
2023-10-04T08:36:19.303Z,2.27
2023-10-04T08:37:14.851Z,2.40
2023-10-04T08:38:08.501Z,1.73
2023-10-04T08:39:12.319Z,1.70
2023-10-04T08:40:10.597Z,2.10
2023-10-04T08:41:03.712Z,1.50
2023-10-04T08:41:59.072Z,1.93
2023-10-04T08:42:52.433Z,1.50
2023-10-04T08:43:45.862Z,1.60
2023-10-04T08:44:41.197Z,2.20
2023-10-04T08:45:35.628Z,1.47
2023-10-04T08:46:32.275Z,1.97
2023-10-04T08:47:25.638Z,1.90
2023-10-04T08:48:21.258Z,1.67
2023-10-04T08:49:16.688Z,1.90
2023-10-04T08:50:13.475Z,1.80
2023-10-04T08:51:18.485Z,2.00
2023-10-04T08:52:16.262Z,1.93
2023-10-04T08:53:18.311Z,1.57
2023-10-04T08:54:15.564Z,1.50
2023-10-04T08:55:17.501Z,1.40
2023-10-04T08:56:13.406Z,2.00
2023-10-04T08:57:15.328Z,1.83
2023-10-04T08:58:08.446Z,1.90
2023-10-04T08:59:01.147Z,1.70
2023-10-04T08:59:56.641Z,1.80
2023-10-04T09:00:51.999Z,1.83
2023-10-04T09:01:47.618Z,2.03
2023-10-04T09:02:45.685Z,1.83
2023-10-04T09:03:41.673Z,1.60
2023-10-04T09:04:40.973Z,1.60
2023-10-04T09:05:34.822Z,1.70
2023-10-04T09:06:27.616Z,1.87
2023-10-04T09:07:24.418Z,1.50
2023-10-04T09:08:18.038Z,1.70
2023-10-04T09:09:16.745Z,1.57
2023-10-04T09:10:10.573Z,1.83
2023-10-04T09:11:11.867Z,1.57
2023-10-04T09:12:04.947Z,1.47
2023-10-04T09:12:59.798Z,1.50
2023-10-04T09:13:56.379Z,1.33
2023-10-04T09:14:49.933Z,1.63
2023-10-04T09:15:43.009Z,1.40
2023-10-04T09:16:38.797Z,1.60
2023-10-04T09:17:44.139Z,1.83
2023-10-04T09:18:39.559Z,1.60
2023-10-04T09:19:32.293Z,1.63
2023-10-04T09:20:28.839Z,1.60
2023-10-04T09:21:21.786Z,1.80
2023-10-04T09:22:19.127Z,1.50
2023-10-04T09:23:21.470Z,1.77
2023-10-04T09:24:22.429Z,1.57
2023-10-04T09:25:17.364Z,1.00
2023-10-04T09:26:18.630Z,1.57
2023-10-04T09:27:12.110Z,1.20
2023-10-04T09:28:09.807Z,1.20
2023-10-04T09:29:02.534Z,1.47
2023-10-04T09:29:59.834Z,1.63
2023-10-04T09:30:52.664Z,1.60
2023-10-04T09:31:55.408Z,1.70
2023-10-04T09:32:48.249Z,1.40
2023-10-04T09:33:41.095Z,1.10
2023-10-04T09:34:36.885Z,1.60
2023-10-04T09:35:42.440Z,1.57
2023-10-04T09:36:37.835Z,1.63
2023-10-04T09:37:30.633Z,1.33
2023-10-04T09:38:26.767Z,1.27
2023-10-04T09:39:25.448Z,1.10
2023-10-04T09:40:25.054Z,1.23
2023-10-04T09:41:18.413Z,1.53
2023-10-04T09:42:16.411Z,1.20
2023-10-04T09:43:10.074Z,1.27
2023-10-04T09:44:05.586Z,1.40
2023-10-04T09:45:07.115Z,1.20
2023-10-04T09:46:02.690Z,1.27
2023-10-04T09:46:56.325Z,1.30
2023-10-04T09:47:51.680Z,1.37
2023-10-04T09:48:47.928Z,1.40
2023-10-04T09:49:50.018Z,1.30
2023-10-04T09:50:43.566Z,1.20
2023-10-04T09:51:39.339Z,1.03
2023-10-04T09:52:32.066Z,1.47
2023-10-04T09:53:27.354Z,1.20
2023-10-04T09:54:23.557Z,1.20
2023-10-04T09:55:19.006Z,1.40
2023-10-04T09:56:13.203Z,1.40
2023-10-04T09:57:11.299Z,1.70
2023-10-04T09:58:04.877Z,1.23
2023-10-04T09:58:57.674Z,1.00
2023-10-04T09:59:53.190Z,1.30
2023-10-04T10:00:46.476Z,1.27
2023-10-04T10:01:42.021Z,1.33
2023-10-04T10:02:37.835Z,1.40
2023-10-04T10:03:34.353Z,1.10
2023-10-04T10:04:30.903Z,1.33
2023-10-04T10:05:28.291Z,1.00
2023-10-04T10:06:24.044Z,1.10
2023-10-04T10:07:20.612Z,1.13
2023-10-04T10:08:14.756Z,1.40
2023-10-04T10:09:09.161Z,1.13
2023-10-04T10:10:15.903Z,1.13
2023-10-04T10:11:11.830Z,1.40
2023-10-04T10:12:05.697Z,1.13
2023-10-04T10:13:01.531Z,1.40
2023-10-04T10:13:54.937Z,1.50
2023-10-04T10:14:48.263Z,1.30
2023-10-04T10:15:44.449Z,1.23
2023-10-04T10:16:37.663Z,1.13
2023-10-04T10:17:32.571Z,1.60
2023-10-04T10:18:28.973Z,1.30
2023-10-04T10:19:25.406Z,1.10
2023-10-04T10:20:21.067Z,1.07
2023-10-04T10:21:14.235Z,1.10
2023-10-04T10:22:09.579Z,1.30
2023-10-04T10:23:18.238Z,1.30
2023-10-04T10:24:16.141Z,1.20
2023-10-04T10:25:16.801Z,1.60
2023-10-04T10:26:22.504Z,1.00
2023-10-04T10:27:17.210Z,1.50
2023-10-04T10:28:24.943Z,1.07
2023-10-04T10:29:22.557Z,1.47
2023-10-04T10:30:20.646Z,1.00
2023-10-04T10:31:20.586Z,1.23
2023-10-04T10:32:21.823Z,1.23
2023-10-04T10:33:14.669Z,1.50
2023-10-04T10:34:08.226Z,1.20
2023-10-04T10:35:06.443Z,1.10
2023-10-04T10:36:04.721Z,1.30
2023-10-04T10:37:10.554Z,0.90
2023-10-04T10:38:48.520Z,0.93
2023-10-04T10:39:45.530Z,1.30
2023-10-04T10:40:43.585Z,1.10
2023-10-04T10:41:56.818Z,0.87
2023-10-04T10:43:10.241Z,1.33
2023-10-04T10:44:18.633Z,1.17
2023-10-04T10:45:30.226Z,1.47
2023-10-04T10:46:30.375Z,1.50
2023-10-04T10:47:26.907Z,1.20
2023-10-04T10:48:31.067Z,1.03
2023-10-04T10:49:57.075Z,1.50
2023-10-04T10:50:50.106Z,1.00
2023-10-04T10:51:43.969Z,1.10
2023-10-04T10:52:43.359Z,1.10
2023-10-04T10:53:36.513Z,1.20
2023-10-04T10:54:29.317Z,1.13
2023-10-04T10:55:28.918Z,1.40
2023-10-04T10:56:25.246Z,1.10
2023-10-04T10:57:20.194Z,1.50
2023-10-04T10:58:15.515Z,1.10
2023-10-04T10:59:08.227Z,1.50
2023-10-04T11:00:08.699Z,1.10
2023-10-04T11:01:04.134Z,1.50
2023-10-04T11:01:56.936Z,1.27
2023-10-04T11:02:55.397Z,1.20
2023-10-04T11:03:49.177Z,1.37
2023-10-04T11:04:41.957Z,1.20
2023-10-04T11:05:37.461Z,0.90
2023-10-04T11:06:32.175Z,1.20
2023-10-04T11:07:27.792Z,1.20
2023-10-04T11:08:22.143Z,0.97
2023-10-04T11:09:25.040Z,1.33
2023-10-04T11:10:34.688Z,1.20
2023-10-04T11:11:30.801Z,1.60
2023-10-04T11:12:24.537Z,1.40
2023-10-04T11:13:19.995Z,1.50
2023-10-04T11:14:17.455Z,1.30
2023-10-04T11:15:13.321Z,1.60
2023-10-04T11:16:09.113Z,1.57
2023-10-04T11:17:01.946Z,1.20
2023-10-04T11:17:57.564Z,1.17
2023-10-04T11:18:50.390Z,1.33
2023-10-04T11:19:43.315Z,1.27
2023-10-04T11:20:40.954Z,1.20
2023-10-04T11:21:35.273Z,1.40
2023-10-04T11:22:32.095Z,1.40
2023-10-04T11:23:24.793Z,1.30
2023-10-04T11:24:20.177Z,1.50
2023-10-04T11:25:16.999Z,1.50
2023-10-04T11:26:10.471Z,1.10
2023-10-04T11:27:05.831Z,1.47
2023-10-04T11:28:01.243Z,1.70
2023-10-04T11:28:54.436Z,1.50
2023-10-04T11:29:47.415Z,1.63
2023-10-04T11:30:42.869Z,1.33
2023-10-04T11:31:45.600Z,1.10
2023-10-04T11:32:45.855Z,1.23
2023-10-04T11:33:51.497Z,1.53
2023-10-04T11:34:47.705Z,1.80
2023-10-04T11:35:42.319Z,1.50
2023-10-04T11:36:36.356Z,1.17
2023-10-04T11:37:32.362Z,1.33
2023-10-04T11:38:26.869Z,1.47
2023-10-04T11:39:20.355Z,1.60
2023-10-04T11:40:16.624Z,1.93
2023-10-04T11:41:09.368Z,1.73
2023-10-04T11:42:06.144Z,1.30
2023-10-04T11:43:03.167Z,1.20
2023-10-04T11:44:01.480Z,1.20
2023-10-04T11:44:56.902Z,1.40
2023-10-04T11:45:49.723Z,1.90
2023-10-04T11:46:59.568Z,2.00
2023-10-04T11:48:02.546Z,1.30
2023-10-04T11:49:11.459Z,1.50
2023-10-04T11:50:11.047Z,1.60
2023-10-04T11:51:06.393Z,1.50
2023-10-04T11:52:01.175Z,1.53
2023-10-04T11:52:58.049Z,1.70
2023-10-04T11:53:55.757Z,1.37
2023-10-04T11:54:48.496Z,1.60
2023-10-04T11:55:44.177Z,1.50
2023-10-04T11:56:40.814Z,1.67
2023-10-04T11:57:41.320Z,1.37
2023-10-04T11:58:34.186Z,1.33
2023-10-04T11:59:34.020Z,1.67
2023-10-04T12:00:28.350Z,1.50
2023-10-04T12:01:24.954Z,1.70
2023-10-04T12:02:17.706Z,1.60
2023-10-04T12:03:11.457Z,1.60
2023-10-04T12:04:08.562Z,1.60
2023-10-04T12:05:04.014Z,1.40
2023-10-04T12:06:00.664Z,1.43
2023-10-04T12:07:00.555Z,1.30
2023-10-04T12:07:59.933Z,1.40
2023-10-04T12:08:57.619Z,1.40
2023-10-04T12:09:50.568Z,1.70
2023-10-04T12:10:47.437Z,1.30
2023-10-04T12:11:40.569Z,1.67
2023-10-04T12:12:38.606Z,1.13
2023-10-04T12:13:31.851Z,1.47
2023-10-04T12:14:24.554Z,1.20
2023-10-04T12:15:19.887Z,1.40
2023-10-04T12:16:15.063Z,1.17
2023-10-04T12:17:10.793Z,1.40
2023-10-04T12:18:04.200Z,1.40
2023-10-04T12:18:57.905Z,1.50
2023-10-04T12:19:53.291Z,1.40
2023-10-04T12:20:46.269Z,1.10
2023-10-04T12:21:39.548Z,0.90
2023-10-04T12:22:36.185Z,1.27
2023-10-04T12:23:28.907Z,1.03
2023-10-04T12:24:21.696Z,1.10